Station: Nullarbor

  Atmospheric Gas Attenuation - ITU Rec 676-11   --------------- db/100km ---------------
Date Time Temp RH % AH g/m3 Dew Point Wind Direction Speed kph Gust kph Barometer mB Rainfall Since 9am 24GHz 47GHz 76GHz 122GHz 134GHz 241GHz
03 08:40 17.1 92 13.39 15.8 37 44 1021 0 29.6 33.3 58.6 154.6 161.0 557.4
03 08:30 16.8 95 13.58 16 26 37 1021.7 0 30.1 33.8 59.8 157.6 164.5 569.8
03 08:20 16.5 95 13.34 15.7 32 39 1020.9 0 29.6 33.5 58.9 155.2 161.5 559.1
03 08:10 16.6 95 13.42 15.8 41 48 1019.8 0 29.7 33.5 59.1 155.8 162.3 562.1
03 08:00 16.6 97 13.7 16.1 30 37 1021 0 30.3 34.1 60.4 159.4 166.7 577.3
03 07:50 16.5 97 13.62 16 32 37 1020.6 0 30.2 34.0 60.1 158.6 165.7 573.7
03 07:40 16.3 98 13.6 16 28 32 1020.4 0 30.1 34.0 60.2 158.7 165.8 574.1
03 07:30 16.2 99 13.65 16 28 39 1020.4 0 30.3 34.1 60.5 159.5 166.8 577.5
03 07:20 16.1 99 13.57 15.9 33 37 1020.3 0 30.1 34.0 60.2 158.8 165.8 573.9
03 07:10 15.8 99 13.33 15.6 24 28 1020.6 0 29.6 33.7 59.3 156.5 162.8 563.6
03 07:00 15.8 99 13.33 15.6 22 30 1020.7 0 29.6 33.7 59.3 156.5 162.8 563.7
03 06:50 15.8 99 13.33 15.6 22 26 1020.3 0 29.6 33.7 59.3 156.4 162.8 563.5
03 06:40 15.8 99 13.33 15.6 26 30 1020.4 0 29.6 33.7 59.3 156.4 162.8 563.6
03 06:30 15.7 99 13.25 15.5 22 28 1020 0 29.4 33.6 59.0 155.6 161.7 559.9
03 06:20 15.7 99 13.25 15.5 20 26 1019.9 0 29.4 33.6 59.0 155.6 161.7 559.9
03 06:10 15.8 99 13.33 15.6 24 28 1019.7 0 29.6 33.7 59.3 156.3 162.7 563.3
03 06:00 15.8 98 13.19 15.5 20 30 1020 0 29.3 33.4 58.7 154.7 160.6 556.0
03 05:50 15.7 99 13.25 15.5 19 20 1019.6 0 29.4 33.6 59.0 155.5 161.7 559.8
03 05:40 15.6 98 13.03 15.3 28 32 1018.5 0 29.0 33.2 58.0 152.9 158.5 548.5
03 05:30 15.6 98 13.03 15.3 24 35 1018.5 0 29.0 33.2 58.0 152.9 158.5 548.5
03 05:20 15.6 99 13.17 15.4 26 32 1018.3 0 29.3 33.4 58.6 154.6 160.5 555.8
03 05:00 15.6 97 12.9 15.1 22 28 1018.9 0 28.7 32.9 57.4 151.4 156.6 541.9
03 04:50 15.6 97 12.9 15.1 24 28 1018.9 0 28.7 32.9 57.4 151.4 156.6 541.9
03 04:40 15.7 96 12.84 15.1 28 32 1018.9 0 28.6 32.8 57.1 150.5 155.5 538.0
03 04:30 15.7 96 12.84 15.1 24 33 1019.1 0 28.6 32.8 57.1 150.5 155.5 538.1
03 04:20 15.7 95 12.71 14.9 26 30 1018.9 0 28.3 32.6 56.5 148.9 153.5 531.3
03 04:10 15.8 96 12.92 15.2 20 22 1019 0 28.7 32.9 57.4 151.2 156.5 541.5
03 04:00 15.7 96 12.84 15.1 26 35 1018.7 0 28.6 32.8 57.1 150.4 155.4 537.9
03 03:50 15.5 96 12.69 14.9 26 35 1017.6 0 28.3 32.5 56.5 148.9 153.5 531.1
03 03:40 15.6 95 12.63 14.8 28 33 1018.2 0 28.1 32.4 56.2 148.0 152.5 527.6
03 03:30 15.6 96 12.77 15 24 33 1018.6 0 28.4 32.7 56.8 149.8 154.6 535.0
03 03:20 15.6 95 12.63 14.8 30 33 1018.1 0 28.1 32.4 56.1 148.0 152.5 527.5
03 03:10 15.6 95 12.63 14.8 22 24 1018.9 0 28.1 32.4 56.2 148.1 152.5 527.8
03 03:00 15.6 94 12.5 14.6 20 30 1019.7 0 27.8 32.2 55.6 146.6 150.7 521.4
03 02:50 15.5 94 12.43 14.5 19 24 1018.9 0 27.7 32.1 55.4 145.9 149.8 518.2
03 02:40 15.6 94 12.5 14.6 22 26 1018.9 0 27.8 32.2 55.6 146.5 150.6 521.1
03 02:30 15.6 94 12.5 14.6 20 37 1019.4 0 27.8 32.2 55.6 146.6 150.7 521.3
03 02:20 15.4 95 12.48 14.6 33 39 1017.1 0 27.8 32.2 55.6 146.5 150.5 520.8
03 02:10 15.5 93 12.29 14.4 22 28 1019.5 0 27.4 31.9 54.8 144.3 147.8 511.3
03 02:00 15.4 93 12.22 14.3 22 30 1019.6 0 27.2 31.8 54.5 143.7 147.0 508.4
03 01:50 15.5 93 12.29 14.4 30 33 1018.8 0 27.4 31.9 54.7 144.2 147.7 511.0
03 01:40 15.6 92 12.23 14.3 24 26 1019.5 0 27.3 31.7 54.4 143.4 146.7 507.5
03 01:30 15.7 90 12.04 14.1 30 43 1019.3 0 26.8 31.4 53.5 140.9 143.7 497.1
03 01:20 15.7 90 12.04 14.1 39 43 1018.3 0 26.8 31.3 53.4 140.8 143.6 496.7
03 01:10 15.7 90 12.04 14.1 35 41 1018.7 0 26.8 31.3 53.5 140.9 143.7 496.9
03 01:00 15.7 90 12.04 14.1 26 35 1019.5 0 26.8 31.4 53.5 141.0 143.8 497.2
03 00:50 15.7 90 12.04 14.1 26 28 1019.6 0 26.8 31.4 53.5 141.0 143.8 497.2
03 00:40 15.8 89 11.98 14 26 28 1019.9 0 26.7 31.2 53.2 140.1 142.7 493.7
03 00:30 15.8 89 11.98 14 32 43 1019.8 0 26.7 31.2 53.2 140.1 142.7 493.6
03 00:20 15.8 88 11.85 13.8 32 41 1019.7 0 26.4 31.0 52.6 138.6 140.8 487.0
03 00:10 15.9 87 11.78 13.7 30 39 1020 0 26.3 30.9 52.3 137.6 139.7 483.0
03 00:00 15.8 87 11.71 13.6 30 37 1020 0 26.1 30.8 52.0 137.0 138.9 480.1
02 23:50 15.8 87 11.71 13.6 30 33 1019.8 0 26.1 30.8 52.0 136.9 138.8 480.0
02 23:40 15.8 87 11.71 13.6 26 39 1020 0 26.1 30.8 52.0 137.0 138.9 480.1
02 23:30 15.8 87 11.71 13.6 32 41 1019.8 0 26.1 30.8 52.0 136.9 138.8 480.0
02 23:20 15.7 87 11.64 13.5 30 35 1019.9 0 26.0 30.7 51.8 136.3 138.0 477.2
02 23:10 15.8 85 11.44 13.3 30 35 1020 0 25.5 30.3 50.8 133.8 135.0 466.6
02 23:00 15.9 86 11.65 13.6 30 41 1019.8 0 26.0 30.6 51.7 136.1 137.8 476.4
02 22:50 15.8 86 11.58 13.5 33 39 1019.9 0 25.8 30.5 51.4 135.4 137.0 473.6
02 22:40 15.8 87 11.71 13.6 24 30 1020.2 0 26.1 30.8 52.0 137.0 138.9 480.2
02 22:30 15.9 87 11.78 13.7 32 41 1020.1 0 26.3 30.9 52.3 137.6 139.7 483.0
02 22:20 15.9 86 11.65 13.6 32 37 1020.1 0 26.0 30.6 51.7 136.1 137.8 476.5
02 22:10 15.9 86 11.65 13.6 30 35 1020.1 0 26.0 30.6 51.7 136.1 137.8 476.5
02 22:00 15.9 85 11.51 13.4 32 44 1020.2 0 25.7 30.4 51.1 134.5 135.8 469.6
02 21:50 15.9 86 11.65 13.6 33 35 1019.6 0 26.0 30.6 51.7 136.0 137.8 476.3
02 21:40 16 85 11.58 13.5 37 41 1019.9 0 25.8 30.5 51.3 135.1 136.6 472.3
02 21:30 16 86 11.72 13.7 32 41 1020.1 0 26.1 30.7 51.9 136.7 138.6 479.4
02 21:20 16 86 11.72 13.7 33 39 1019.8 0 26.1 30.7 51.9 136.7 138.6 479.3
02 21:10 16 85 11.58 13.5 32 37 1019.5 0 25.8 30.5 51.3 135.0 136.6 472.2
02 21:00 16 85 11.58 13.5 32 43 1020 0 25.8 30.5 51.3 135.1 136.6 472.4
02 20:50 16 84 11.44 13.3 33 39 1019.7 0 25.5 30.2 50.7 133.4 134.6 465.3
02 20:40 16 84 11.44 13.3 35 41 1019 0 25.5 30.2 50.7 133.4 134.5 465.1
02 20:30 16.1 84 11.51 13.4 35 44 1019.1 0 25.7 30.3 50.9 134.0 135.4 468.0
02 20:20 16.2 82 11.31 13.1 37 43 1019.5 0 25.2 29.9 50.0 131.6 132.4 457.6
02 20:10 16.2 84 11.58 13.5 35 39 1019.9 0 25.8 30.4 51.2 134.7 136.3 471.1
02 20:00 16.3 83 11.51 13.4 35 44 1019.9 0 25.7 30.2 50.8 133.8 135.1 467.0
02 19:50 16.3 83 11.51 13.4 30 35 1019.8 0 25.7 30.2 50.8 133.7 135.1 467.0
02 19:40 16.4 82 11.44 13.3 32 37 1019.7 0 25.5 30.1 50.4 132.8 133.9 462.9
02 19:30 16.6 81 11.44 13.3 32 44 1019.8 0 25.5 30.0 50.3 132.4 133.6 461.7
02 19:20 16.6 81 11.44 13.3 39 43 1019.3 0 25.5 30.0 50.3 132.4 133.5 461.6
02 19:10 16.6 82 11.58 13.5 35 44 1018.9 0 25.8 30.2 50.9 133.9 135.4 468.3
02 19:00 16.8 81 11.58 13.5 35 46 1019 0 25.8 30.2 50.7 133.6 135.1 467.1
02 18:50 16.8 80 11.44 13.3 35 43 1018.9 0 25.5 29.9 50.1 132.0 133.1 460.2
02 18:40 16.8 79 11.29 13.1 39 46 1018.9 0 25.2 29.6 49.5 130.3 131.0 452.9
02 18:30 17.3 79 11.64 13.6 35 46 1019 0 25.9 30.1 50.7 133.4 135.1 467.1
02 18:20 18 75 11.52 13.5 35 41 1018.6 0 25.6 29.6 49.7 130.8 132.1 456.9
02 18:10 17.7 76 11.47 13.4 35 44 1018.7 0 25.5 29.6 49.7 130.8 132.0 456.3
02 18:00 18.3 75 11.73 13.8 39 50 1018.5 0 26.0 29.9 50.4 132.7 134.5 465.3
02 17:50 18.5 74 11.71 13.8 33 43 1018.6 0 26.0 29.8 50.2 132.1 133.9 463.1
02 17:40 18.2 74 11.5 13.5 37 44 1018.3 0 25.5 29.5 49.5 130.2 131.5 454.7
02 17:30 18.9 74 11.99 14.2 37 46 1018.4 0 26.5 30.1 51.1 134.6 137.0 474.2
02 17:20 18.2 73 11.35 13.3 39 43 1018.6 0 25.2 29.3 48.9 128.6 129.4 447.6
02 17:10 18.3 74 11.57 13.6 35 39 1018.7 0 25.7 29.6 49.7 130.9 132.3 457.6
02 17:00 18.7 74 11.85 14 37 48 1018.8 0 26.2 30.0 50.6 133.4 135.5 468.8
02 16:50 18.8 74 11.92 14.1 35 43 1018.6 0 26.4 30.0 50.9 134.0 136.3 471.5
02 16:40 18.7 72 11.53 13.6 33 39 1018.5 0 25.6 29.4 49.3 129.8 131.1 453.3
02 16:30 19.1 72 11.8 13.9 35 44 1018.8 0 26.1 29.7 50.2 132.1 134.1 464.0
02 16:20 18.1 73 11.28 13.2 39 44 1018.7 0 25.1 29.2 48.6 128.0 128.7 444.8
02 16:10 18.3 74 11.57 13.6 35 43 1018.9 0 25.7 29.6 49.7 130.9 132.3 457.7
02 16:00 18.3 73 11.41 13.4 33 44 1019.1 0 25.3 29.4 49.1 129.1 130.2 450.1

Last Refresh: 03-Dec-2021 08:51:12

Bureau of Meteorology